createdAt,value
2023-06-11T00:00:26.099Z,16.97
2023-06-11T00:01:26.079Z,16.98
2023-06-11T00:02:26.204Z,17.04
2023-06-11T00:03:26.283Z,17.15
2023-06-11T00:04:26.430Z,17.23
2023-06-11T00:05:26.053Z,17.26
2023-06-11T00:06:26.054Z,17.31
2023-06-11T00:07:26.027Z,17.38
2023-06-11T00:08:26.033Z,17.44
2023-06-11T00:09:26.021Z,17.43
2023-06-11T00:10:26.008Z,17.40
2023-06-11T00:11:25.988Z,17.43
2023-06-11T00:12:25.993Z,17.52
2023-06-11T00:13:25.971Z,17.49
2023-06-11T00:14:25.959Z,17.49
2023-06-11T00:15:25.931Z,17.49
2023-06-11T00:16:26.074Z,17.46
2023-06-11T00:17:25.941Z,17.49
2023-06-11T00:18:25.929Z,17.59
2023-06-11T00:19:25.892Z,17.61
2023-06-11T00:20:25.884Z,17.59
2023-06-11T00:21:25.866Z,17.55
2023-06-11T00:22:25.900Z,17.51
2023-06-11T00:23:25.849Z,17.52
2023-06-11T00:24:26.088Z,17.49
2023-06-11T00:25:25.857Z,17.56
2023-06-11T00:26:25.847Z,17.65
2023-06-11T00:27:25.823Z,17.70
2023-06-11T00:28:25.808Z,17.71
2023-06-11T00:29:25.786Z,17.73
2023-06-11T00:30:25.800Z,17.81
2023-06-11T00:31:25.812Z,17.77
2023-06-11T00:32:25.820Z,17.80
2023-06-11T00:33:25.743Z,17.76
2023-06-11T00:34:25.743Z,17.73
2023-06-11T00:35:25.836Z,17.76
2023-06-11T00:36:25.724Z,17.71
2023-06-11T00:37:25.697Z,17.67
2023-06-11T00:38:25.709Z,17.70
2023-06-11T00:39:25.676Z,17.70
2023-06-11T00:40:25.712Z,17.63
2023-06-11T00:41:25.674Z,17.65
2023-06-11T00:42:25.663Z,17.70
2023-06-11T00:43:25.640Z,17.69
2023-06-11T00:44:25.651Z,17.65
2023-06-11T00:45:25.628Z,17.63
2023-06-11T00:46:25.762Z,17.62
2023-06-11T00:47:25.661Z,17.56
2023-06-11T00:48:25.624Z,17.59
2023-06-11T00:49:25.590Z,17.59
2023-06-11T00:50:25.587Z,17.67
2023-06-11T00:51:25.553Z,17.71
2023-06-11T00:52:25.556Z,17.67
2023-06-11T00:53:25.542Z,17.73
2023-06-11T00:54:25.546Z,17.71
2023-06-11T00:55:25.524Z,17.73
2023-06-11T00:56:25.540Z,17.71
2023-06-11T00:57:25.498Z,17.71
2023-06-11T00:58:25.542Z,17.67
2023-06-11T00:59:25.482Z,17.70
2023-06-11T01:00:25.464Z,17.80
2023-06-11T01:01:25.565Z,17.88
2023-06-11T01:02:25.460Z,17.88
2023-06-11T01:03:25.429Z,17.89
2023-06-11T01:04:25.468Z,17.86
2023-06-11T01:05:25.600Z,17.80
2023-06-11T01:06:25.415Z,17.73
2023-06-11T01:07:25.384Z,17.67
2023-06-11T01:08:25.377Z,17.63
2023-06-11T01:09:25.375Z,17.62
2023-06-11T01:10:25.358Z,17.71
2023-06-11T01:11:25.335Z,17.85
2023-06-11T01:12:25.386Z,17.85
2023-06-11T01:13:25.319Z,17.81
2023-06-11T01:14:25.318Z,17.86
2023-06-11T01:15:25.301Z,17.95
2023-06-11T01:16:25.368Z,17.89
2023-06-11T01:17:25.401Z,17.88
2023-06-11T01:18:25.288Z,17.83
2023-06-11T01:19:25.258Z,17.80
2023-06-11T01:20:25.253Z,17.76
2023-06-11T01:21:25.260Z,17.80
2023-06-11T01:22:25.253Z,17.76
2023-06-11T01:23:25.229Z,17.80
2023-06-11T01:24:25.276Z,17.77
2023-06-11T01:25:25.209Z,17.78
2023-06-11T01:26:25.200Z,17.80
2023-06-11T01:27:25.176Z,17.94
2023-06-11T01:28:25.198Z,17.96
2023-06-11T01:29:25.168Z,18.10
2023-06-11T01:30:25.174Z,18.10
2023-06-11T01:31:25.235Z,18.26
2023-06-11T01:32:25.313Z,18.25
2023-06-11T01:33:25.135Z,18.26
2023-06-11T01:34:25.132Z,18.32
2023-06-11T01:35:25.101Z,18.35
2023-06-11T01:36:25.089Z,18.47
2023-06-11T01:37:25.070Z,18.52
2023-06-11T01:38:25.070Z,18.60
2023-06-11T01:39:25.048Z,18.70
2023-06-11T01:40:25.044Z,18.84
2023-06-11T01:41:25.024Z,18.94
2023-06-11T01:42:25.019Z,18.92
2023-06-11T01:43:25.012Z,18.91
2023-06-11T01:44:25.022Z,18.84
2023-06-11T01:45:25.012Z,18.75
2023-06-11T01:46:25.004Z,18.67
2023-06-11T01:47:24.990Z,18.62
2023-06-11T01:48:24.961Z,18.60
2023-06-11T01:49:24.961Z,18.60
2023-06-11T01:50:24.957Z,18.57
2023-06-11T01:51:24.920Z,18.57
2023-06-11T01:52:24.976Z,18.57
2023-06-11T01:53:24.939Z,18.54
2023-06-11T01:54:24.902Z,18.57
2023-06-11T01:55:24.882Z,18.85
2023-06-11T01:56:24.888Z,18.91
2023-06-11T01:57:24.856Z,18.88
2023-06-11T01:58:24.898Z,18.84
2023-06-11T01:59:24.858Z,18.76
2023-06-11T02:00:24.878Z,18.67
2023-06-11T02:01:24.893Z,18.69
2023-06-11T02:02:24.835Z,18.70
2023-06-11T02:03:24.846Z,18.63
2023-06-11T02:04:24.819Z,18.57
2023-06-11T02:05:24.771Z,18.45
2023-06-11T02:06:24.796Z,18.36
2023-06-11T02:07:24.759Z,18.26
2023-06-11T02:08:24.761Z,18.17
2023-06-11T02:09:24.749Z,18.11
2023-06-11T02:10:24.734Z,18.02
2023-06-11T02:11:24.726Z,17.99
2023-06-11T02:12:24.696Z,17.99
2023-06-11T02:13:24.716Z,17.89
2023-06-11T02:14:24.704Z,17.88
2023-06-11T02:15:24.672Z,17.85
2023-06-11T02:16:24.772Z,17.88
2023-06-11T02:17:24.682Z,17.85
2023-06-11T02:18:24.658Z,17.76
2023-06-11T02:19:24.652Z,17.74
2023-06-11T02:20:24.639Z,17.67
2023-06-11T02:21:24.614Z,17.63
2023-06-11T02:22:24.609Z,17.58
2023-06-11T02:23:24.596Z,17.52
2023-06-11T02:24:24.676Z,17.54
2023-06-11T02:25:24.614Z,17.51
2023-06-11T02:26:24.560Z,17.48
2023-06-11T02:27:24.562Z,17.51
2023-06-11T02:28:24.569Z,17.51
2023-06-11T02:29:24.566Z,17.49
2023-06-11T02:30:24.547Z,17.46
2023-06-11T02:31:24.638Z,17.43
2023-06-11T02:32:24.551Z,17.43
2023-06-11T02:33:24.489Z,17.52
2023-06-11T02:34:24.465Z,17.54
2023-06-11T02:35:24.461Z,17.51
2023-06-11T02:36:24.453Z,17.43
2023-06-11T02:37:24.454Z,17.38
2023-06-11T02:38:24.452Z,17.34
2023-06-11T02:39:24.421Z,17.28
2023-06-11T02:40:24.434Z,17.28
2023-06-11T02:41:24.403Z,17.25
2023-06-11T02:42:24.402Z,17.19
2023-06-11T02:43:24.384Z,17.15
2023-06-11T02:44:24.367Z,17.08
2023-06-11T02:45:24.372Z,17.03
2023-06-11T02:46:24.422Z,16.97
2023-06-11T02:47:24.351Z,16.91
2023-06-11T02:48:24.347Z,16.85
2023-06-11T02:49:24.295Z,16.81
2023-06-11T02:50:24.237Z,16.87
2023-06-11T02:51:24.263Z,16.94
2023-06-11T02:52:24.238Z,16.97
2023-06-11T02:53:24.312Z,16.98
2023-06-11T02:54:24.257Z,16.98
2023-06-11T02:55:24.210Z,16.94
2023-06-11T02:56:24.188Z,16.84
2023-06-11T02:57:24.187Z,16.85
2023-06-11T02:58:24.162Z,16.81
2023-06-11T02:59:24.190Z,16.87
2023-06-11T03:00:24.157Z,16.84
2023-06-11T03:01:24.234Z,16.81
2023-06-11T03:02:24.142Z,16.80
2023-06-11T03:03:24.172Z,16.72
2023-06-11T03:04:24.209Z,16.70
2023-06-11T03:05:24.119Z,16.66
2023-06-11T03:06:24.087Z,16.67
2023-06-11T03:07:24.068Z,16.63
2023-06-11T03:08:24.057Z,16.57
2023-06-11T03:09:24.052Z,16.55
2023-06-11T03:10:24.044Z,16.55
2023-06-11T03:11:24.049Z,16.55
2023-06-11T03:12:24.022Z,16.51
2023-06-11T03:13:24.054Z,16.45
2023-06-11T03:14:23.996Z,16.48
2023-06-11T03:15:24.004Z,16.45
2023-06-11T03:16:24.015Z,16.45
2023-06-11T03:17:24.007Z,16.41
2023-06-11T03:18:23.947Z,16.37
2023-06-11T03:19:23.948Z,16.30
2023-06-11T03:20:23.981Z,16.30
2023-06-11T03:21:23.966Z,16.29
2023-06-11T03:22:23.924Z,16.34
2023-06-11T03:23:23.972Z,16.33
2023-06-11T03:24:23.997Z,16.34
2023-06-11T03:25:23.885Z,16.37
2023-06-11T03:26:23.870Z,16.38
2023-06-11T03:27:23.861Z,16.37
2023-06-11T03:28:23.851Z,16.44
2023-06-11T03:29:23.850Z,16.41
2023-06-11T03:30:23.820Z,16.42
2023-06-11T03:31:23.844Z,16.42
2023-06-11T03:32:23.843Z,16.41
2023-06-11T03:33:23.798Z,16.37
2023-06-11T03:34:23.788Z,16.34
2023-06-11T03:35:23.791Z,16.33
2023-06-11T03:36:23.805Z,16.34
2023-06-11T03:37:23.754Z,16.40
2023-06-11T03:38:23.741Z,16.45
2023-06-11T03:39:23.739Z,16.52
2023-06-11T03:40:23.718Z,16.56
2023-06-11T03:41:23.709Z,16.72
2023-06-11T03:42:23.709Z,16.81
2023-06-11T03:43:23.723Z,16.78
2023-06-11T03:44:23.677Z,16.80
2023-06-11T03:45:23.721Z,16.80
2023-06-11T03:46:23.692Z,16.80
2023-06-11T03:47:23.668Z,16.81
2023-06-11T03:48:23.634Z,16.82
2023-06-11T03:49:23.634Z,16.87
2023-06-11T03:50:23.613Z,16.88
2023-06-11T03:51:23.609Z,16.93
2023-06-11T03:52:23.624Z,16.96
2023-06-11T03:53:23.613Z,16.98
2023-06-11T03:54:23.584Z,17.01
2023-06-11T03:55:23.576Z,17.06
2023-06-11T03:56:23.549Z,17.08
2023-06-11T03:57:23.538Z,17.19
2023-06-11T03:58:23.549Z,17.28
2023-06-11T03:59:23.533Z,17.36
2023-06-11T04:00:23.507Z,17.36
2023-06-11T04:01:23.507Z,17.34
2023-06-11T04:02:23.592Z,17.40
2023-06-11T04:03:23.525Z,17.41
2023-06-11T04:04:23.519Z,17.38
2023-06-11T04:05:23.455Z,17.34
2023-06-11T04:06:23.497Z,17.28
2023-06-11T04:07:23.437Z,17.23
2023-06-11T04:08:23.506Z,17.22
2023-06-11T04:09:23.433Z,17.22
2023-06-11T04:10:23.513Z,17.16
2023-06-11T04:11:23.436Z,17.16
2023-06-11T04:12:23.424Z,17.18
2023-06-11T04:13:23.451Z,17.22
2023-06-11T04:14:23.428Z,17.23
2023-06-11T04:15:23.362Z,17.28
2023-06-11T04:16:23.362Z,17.33
2023-06-11T04:17:23.488Z,17.40
2023-06-11T04:18:23.339Z,17.44
2023-06-11T04:19:23.338Z,17.54
2023-06-11T04:20:23.335Z,17.56
2023-06-11T04:21:23.322Z,17.61
2023-06-11T04:22:23.301Z,17.74
2023-06-11T04:23:23.292Z,17.94
2023-06-11T04:24:23.355Z,18.01
2023-06-11T04:25:23.272Z,18.10
2023-06-11T04:26:23.255Z,18.19
2023-06-11T04:27:23.228Z,18.19
2023-06-11T04:28:23.225Z,18.20
2023-06-11T04:29:23.223Z,18.26
2023-06-11T04:30:23.194Z,18.32
2023-06-11T04:31:23.275Z,18.35
2023-06-11T04:32:23.235Z,18.29
2023-06-11T04:33:23.167Z,18.32
2023-06-11T04:34:23.154Z,18.36
2023-06-11T04:35:23.154Z,18.35
2023-06-11T04:36:23.139Z,18.35
2023-06-11T04:37:23.126Z,18.35
2023-06-11T04:38:23.113Z,18.36
2023-06-11T04:39:23.113Z,18.41
2023-06-11T04:40:23.111Z,18.48
2023-06-11T04:41:23.089Z,18.55
2023-06-11T04:42:23.071Z,18.69
2023-06-11T04:43:23.059Z,18.88
2023-06-11T04:44:23.054Z,19.02
2023-06-11T04:45:23.053Z,19.17
2023-06-11T04:46:23.110Z,19.27
2023-06-11T04:47:23.064Z,19.40
2023-06-11T04:48:23.004Z,19.55
2023-06-11T04:49:23.046Z,19.58
2023-06-11T04:50:23.001Z,19.61
2023-06-11T04:51:23.011Z,19.67
2023-06-11T04:52:22.970Z,19.72
2023-06-11T04:53:23.011Z,19.76
2023-06-11T04:54:23.036Z,19.76
2023-06-11T04:55:22.974Z,19.76
2023-06-11T04:56:22.939Z,19.77
2023-06-11T04:57:22.913Z,19.78
2023-06-11T04:58:22.896Z,19.83
2023-06-11T04:59:22.899Z,19.86
2023-06-11T05:00:22.886Z,19.94
2023-06-11T05:01:22.903Z,19.98
2023-06-11T05:02:22.914Z,20.02
2023-06-11T05:03:22.866Z,20.06
2023-06-11T05:04:22.867Z,20.08
2023-06-11T05:05:22.861Z,20.16
2023-06-11T05:06:22.979Z,20.17
2023-06-11T05:07:22.820Z,20.23
2023-06-11T05:08:22.808Z,20.31
2023-06-11T05:09:22.801Z,20.38
2023-06-11T05:10:22.775Z,20.47
2023-06-11T05:11:22.796Z,20.51
2023-06-11T05:12:22.814Z,20.60
2023-06-11T05:13:22.750Z,20.72
2023-06-11T05:14:22.798Z,20.81
2023-06-11T05:15:22.740Z,20.88
2023-06-11T05:16:22.885Z,20.94
2023-06-11T05:17:22.734Z,21.02
2023-06-11T05:18:22.720Z,21.06
2023-06-11T05:19:22.726Z,21.15
2023-06-11T05:20:22.677Z,21.22
2023-06-11T05:21:22.693Z,21.29
2023-06-11T05:22:22.684Z,21.38
2023-06-11T05:23:22.648Z,21.47
2023-06-11T05:24:22.703Z,21.62
2023-06-11T05:25:22.655Z,21.95
2023-06-11T05:26:22.633Z,22.35
2023-06-11T05:27:22.611Z,22.80
2023-06-11T05:28:22.635Z,23.22
2023-06-11T05:29:22.610Z,23.46
2023-06-11T05:30:22.584Z,23.69
2023-06-11T05:31:22.665Z,24.05
2023-06-11T05:32:22.656Z,24.45
2023-06-11T05:33:22.543Z,24.79
2023-06-11T05:34:22.516Z,24.64
2023-06-11T05:35:22.543Z,24.86
2023-06-11T05:36:22.509Z,25.14
2023-06-11T05:37:22.518Z,25.32
2023-06-11T05:38:22.474Z,25.35
2023-06-11T05:39:22.480Z,25.55
2023-06-11T05:40:22.462Z,25.91
2023-06-11T05:41:22.468Z,26.34
2023-06-11T05:42:22.436Z,26.74
2023-06-11T05:43:22.470Z,26.65
2023-06-11T05:44:22.444Z,26.51
2023-06-11T05:45:22.420Z,26.31
2023-06-11T05:46:22.439Z,26.22
2023-06-11T05:47:22.478Z,26.13
2023-06-11T05:48:22.439Z,26.29
2023-06-11T05:49:22.374Z,26.61
2023-06-11T05:50:22.361Z,26.81
2023-06-11T05:51:22.366Z,26.62
2023-06-11T05:52:22.345Z,26.83
2023-06-11T05:53:22.341Z,26.91
2023-06-11T05:54:22.309Z,27.02
2023-06-11T05:55:22.336Z,26.84
2023-06-11T05:56:22.306Z,26.64
2023-06-11T05:57:22.305Z,26.64
2023-06-11T05:58:22.268Z,26.80
2023-06-11T05:59:22.285Z,26.79
2023-06-11T06:00:22.362Z,27.10
2023-06-11T06:01:22.247Z,27.44
2023-06-11T06:02:22.292Z,27.10
2023-06-11T06:03:22.331Z,26.87
2023-06-11T06:04:22.322Z,26.89
2023-06-11T06:05:22.312Z,26.97
2023-06-11T06:06:22.176Z,26.88
2023-06-11T06:07:22.191Z,26.66
2023-06-11T06:08:22.160Z,26.57
2023-06-11T06:09:22.152Z,26.81
2023-06-11T06:10:22.146Z,27.02
2023-06-11T06:11:22.136Z,27.24
2023-06-11T06:12:22.119Z,27.40
2023-06-11T06:13:22.142Z,27.41
2023-06-11T06:14:22.093Z,27.86
2023-06-11T06:15:22.087Z,27.95
2023-06-11T06:16:22.177Z,27.87
2023-06-11T06:17:22.077Z,27.80
2023-06-11T06:18:22.135Z,27.93
2023-06-11T06:19:22.057Z,27.49
2023-06-11T06:20:22.100Z,26.39
2023-06-11T06:21:22.044Z,25.72
2023-06-11T06:22:22.017Z,25.29
2023-06-11T06:23:22.016Z,24.97
2023-06-11T06:24:22.073Z,24.75
2023-06-11T06:25:21.994Z,24.61
2023-06-11T06:26:21.980Z,24.27
2023-06-11T06:27:21.974Z,24.18
2023-06-11T06:28:21.978Z,24.32
2023-06-11T06:29:21.940Z,25.02
2023-06-11T06:30:21.961Z,25.90
2023-06-11T06:31:22.111Z,26.50
2023-06-11T06:32:21.964Z,26.97
2023-06-11T06:33:21.910Z,27.44
2023-06-11T06:34:21.893Z,27.81
2023-06-11T06:35:21.881Z,27.84
2023-06-11T06:36:21.869Z,28.16
2023-06-11T06:37:21.907Z,27.96
2023-06-11T06:38:21.857Z,27.98
2023-06-11T06:39:21.845Z,27.65
2023-06-11T06:40:21.846Z,27.51
2023-06-11T06:41:21.825Z,27.43
2023-06-11T06:42:21.831Z,27.78
2023-06-11T06:43:21.794Z,28.18
2023-06-11T06:44:21.801Z,28.61
2023-06-11T06:45:21.779Z,28.55
2023-06-11T06:46:21.794Z,29.01
2023-06-11T06:47:21.822Z,29.35
2023-06-11T06:48:21.839Z,29.38
2023-06-11T06:49:21.770Z,29.38
2023-06-11T06:50:21.879Z,29.41
2023-06-11T06:51:21.785Z,29.70
2023-06-11T06:52:21.731Z,29.87
2023-06-11T06:53:21.703Z,29.82
2023-06-11T06:54:21.716Z,30.04
2023-06-11T06:55:21.688Z,30.15
2023-06-11T06:56:21.670Z,30.20
2023-06-11T06:57:21.673Z,30.19
2023-06-11T06:58:21.682Z,30.01
2023-06-11T06:59:21.658Z,30.07
2023-06-11T07:00:21.645Z,29.82
2023-06-11T07:01:21.708Z,29.60
2023-06-11T07:02:21.678Z,29.62
2023-06-11T07:03:21.607Z,29.40
2023-06-11T07:04:21.632Z,29.14
2023-06-11T07:05:21.653Z,28.83
2023-06-11T07:06:21.584Z,29.07
2023-06-11T07:07:21.552Z,29.60
2023-06-11T07:08:21.576Z,29.95
2023-06-11T07:09:21.533Z,30.11
2023-06-11T07:10:21.538Z,30.22
2023-06-11T07:11:21.514Z,30.32
2023-06-11T07:12:21.573Z,30.39
2023-06-11T07:13:21.512Z,30.37
2023-06-11T07:14:21.491Z,30.13
2023-06-11T07:15:21.479Z,30.34
2023-06-11T07:16:21.584Z,30.39
2023-06-11T07:17:21.509Z,30.20
2023-06-11T07:18:21.453Z,30.04
2023-06-11T07:19:21.469Z,30.27
2023-06-11T07:20:21.473Z,29.71
2023-06-11T07:21:21.429Z,29.86
2023-06-11T07:22:21.412Z,29.90
2023-06-11T07:23:23.008Z,30.04
2023-06-11T07:24:21.484Z,29.97
2023-06-11T07:25:21.381Z,29.87
2023-06-11T07:26:21.373Z,29.51
2023-06-11T07:27:21.350Z,29.63
2023-06-11T07:28:21.378Z,29.92
2023-06-11T07:29:21.328Z,30.02
2023-06-11T07:30:21.338Z,30.10
2023-06-11T07:31:21.340Z,30.34
2023-06-11T07:32:21.307Z,30.64
2023-06-11T07:33:21.290Z,31.03
2023-06-11T07:34:21.313Z,31.47
2023-06-11T07:35:21.269Z,31.23
2023-06-11T07:36:21.302Z,31.25
2023-06-11T07:37:21.252Z,30.91
2023-06-11T07:38:21.248Z,30.94
2023-06-11T07:39:21.225Z,31.16
2023-06-11T07:40:21.251Z,31.56
2023-06-11T07:41:21.223Z,31.78
2023-06-11T07:42:21.206Z,31.32
2023-06-11T07:43:21.194Z,31.26
2023-06-11T07:44:21.183Z,30.88
2023-06-11T07:45:22.984Z,31.03
2023-06-11T07:46:21.216Z,31.50
2023-06-11T07:47:21.184Z,31.87
2023-06-11T07:48:21.144Z,32.02
2023-06-11T07:49:21.143Z,31.70
2023-06-11T07:50:21.136Z,31.46
2023-06-11T07:51:21.137Z,31.36
2023-06-11T07:52:21.144Z,31.48
2023-06-11T07:53:21.089Z,31.25
2023-06-11T07:54:21.078Z,30.59
2023-06-11T07:55:21.072Z,30.57
2023-06-11T07:56:21.064Z,30.74
2023-06-11T07:57:21.059Z,30.72
2023-06-11T07:58:21.041Z,30.87
2023-06-11T07:59:21.060Z,31.01
2023-06-11T08:00:21.053Z,31.36
2023-06-11T08:01:21.023Z,31.39
2023-06-11T08:02:21.066Z,30.90
2023-06-11T08:03:21.127Z,31.25
2023-06-11T08:04:20.998Z,31.26
2023-06-11T08:05:21.059Z,31.06
2023-06-11T08:06:21.048Z,30.82
2023-06-11T08:07:20.954Z,30.76
2023-06-11T08:08:20.969Z,31.03
2023-06-11T08:09:20.930Z,31.26
2023-06-11T08:10:20.940Z,31.62
2023-06-11T08:11:20.917Z,31.91
2023-06-11T08:12:20.905Z,31.80
2023-06-11T08:13:20.886Z,31.83
2023-06-11T08:14:20.884Z,32.02
2023-06-11T08:15:20.876Z,32.34
2023-06-11T08:16:20.866Z,32.50
2023-06-11T08:17:20.932Z,32.78
2023-06-11T08:18:20.877Z,32.84
2023-06-11T08:19:20.820Z,32.81
2023-06-11T08:20:20.829Z,32.39
2023-06-11T08:21:20.842Z,32.25
2023-06-11T08:22:20.804Z,32.36
2023-06-11T08:23:20.780Z,32.14
2023-06-11T08:24:20.897Z,32.22
2023-06-11T08:25:20.759Z,32.32
2023-06-11T08:26:20.774Z,32.42
2023-06-11T08:27:20.755Z,32.29
2023-06-11T08:28:20.744Z,32.46
2023-06-11T08:29:20.729Z,32.34
2023-06-11T08:30:20.717Z,31.98
2023-06-11T08:31:20.714Z,31.88
2023-06-11T08:32:20.832Z,32.24
2023-06-11T08:33:20.759Z,32.84
2023-06-11T08:34:20.698Z,33.21
2023-06-11T08:35:20.670Z,33.55
2023-06-11T08:36:20.681Z,33.77
2023-06-11T08:37:20.650Z,33.97
2023-06-11T08:38:20.643Z,34.16
2023-06-11T08:39:20.642Z,33.94
2023-06-11T08:40:20.660Z,33.80
2023-06-11T08:41:20.604Z,33.97
2023-06-11T08:42:20.613Z,33.92
2023-06-11T08:43:20.600Z,33.60
2023-06-11T08:44:20.582Z,33.55
2023-06-11T08:45:20.586Z,33.38
2023-06-11T08:46:20.620Z,32.81
2023-06-11T08:47:20.543Z,32.96
2023-06-11T08:48:20.543Z,32.93
2023-06-11T08:49:20.540Z,33.15
2023-06-11T08:50:20.517Z,32.94
2023-06-11T08:51:20.504Z,33.03
2023-06-11T08:52:20.525Z,32.97
2023-06-11T08:53:20.494Z,33.28
2023-06-11T08:54:20.493Z,33.68
2023-06-11T08:55:20.458Z,33.78
2023-06-11T08:56:20.504Z,33.83
2023-06-11T08:57:20.459Z,34.21
2023-06-11T08:58:20.453Z,34.43
2023-06-11T08:59:20.431Z,34.27
2023-06-11T09:00:20.425Z,34.42
2023-06-11T09:01:20.465Z,34.61
2023-06-11T09:02:20.459Z,34.30
2023-06-11T09:03:20.422Z,34.56
2023-06-11T09:04:20.481Z,34.59
2023-06-11T09:05:20.374Z,34.34
2023-06-11T09:06:20.372Z,34.28
2023-06-11T09:07:20.359Z,34.43
2023-06-11T09:08:20.354Z,34.69
2023-06-11T09:09:20.337Z,35.27
2023-06-11T09:10:20.398Z,35.56
2023-06-11T09:11:20.301Z,36.21
2023-06-11T09:12:20.341Z,36.75
2023-06-11T09:13:20.307Z,37.24
2023-06-11T09:14:20.308Z,37.39
2023-06-11T09:15:20.321Z,37.43
2023-06-11T09:16:20.280Z,35.93
2023-06-11T09:17:20.329Z,35.77
2023-06-11T09:18:20.263Z,35.41
2023-06-11T09:19:20.232Z,35.65
2023-06-11T09:20:20.247Z,35.17
2023-06-11T09:21:20.208Z,34.54
2023-06-11T09:22:20.217Z,34.49
2023-06-11T09:23:20.196Z,34.27
2023-06-11T09:24:20.243Z,33.94
2023-06-11T09:25:20.163Z,33.90
2023-06-11T09:26:20.175Z,34.40
2023-06-11T09:27:20.154Z,34.87
2023-06-11T09:28:20.182Z,35.27
2023-06-11T09:29:20.138Z,35.18
2023-06-11T09:30:20.282Z,34.74
2023-06-11T09:31:20.136Z,34.69
2023-06-11T09:32:33.340Z,35.24
2023-06-11T09:33:21.178Z,35.06
2023-06-11T09:34:20.093Z,34.46
2023-06-11T09:35:22.105Z,33.81
2023-06-11T09:36:20.080Z,34.02
2023-06-11T09:37:20.088Z,34.08
2023-06-11T09:38:20.072Z,33.78
2023-06-11T09:39:20.034Z,34.22
2023-06-11T09:40:20.157Z,33.77
2023-06-11T09:41:20.655Z,33.38
2023-06-11T09:42:20.015Z,34.03
2023-06-11T09:43:19.999Z,34.56
2023-06-11T09:44:20.044Z,34.77
2023-06-11T09:45:19.983Z,35.27
2023-06-11T09:46:20.011Z,35.52
2023-06-11T09:47:19.967Z,35.77
2023-06-11T09:48:19.967Z,35.74
2023-06-11T09:49:19.949Z,35.30
2023-06-11T09:50:20.046Z,35.22
2023-06-11T09:51:19.942Z,35.18
2023-06-11T09:52:19.939Z,35.32
2023-06-11T09:53:19.914Z,35.43
2023-06-11T09:54:19.913Z,35.48
2023-06-11T09:55:19.882Z,35.60
2023-06-11T09:56:19.901Z,35.41
2023-06-11T09:57:19.871Z,35.14
2023-06-11T09:58:19.862Z,35.28
2023-06-11T09:59:19.854Z,35.81
2023-06-11T10:00:19.874Z,36.18
2023-06-11T10:01:19.842Z,36.15
2023-06-11T10:02:19.857Z,35.41
2023-06-11T10:03:19.866Z,35.45
2023-06-11T10:04:19.887Z,35.30
2023-06-11T10:05:19.794Z,34.72
2023-06-11T10:06:19.790Z,34.42
2023-06-11T10:07:19.778Z,34.42
2023-06-11T10:08:19.776Z,34.79
2023-06-11T10:09:19.758Z,34.71
2023-06-11T10:10:19.763Z,35.05
2023-06-11T10:11:19.733Z,35.60
2023-06-11T10:12:19.739Z,36.21
2023-06-11T10:13:19.716Z,36.46
2023-06-11T10:14:19.710Z,36.30
2023-06-11T10:15:19.698Z,35.35
2023-06-11T10:16:19.816Z,35.55
2023-06-11T10:17:19.681Z,36.14
2023-06-11T10:18:19.681Z,36.30
2023-06-11T10:19:19.654Z,35.90
2023-06-11T10:20:19.667Z,35.28
2023-06-11T10:21:19.643Z,35.24
2023-06-11T10:22:19.644Z,35.94
2023-06-11T10:23:19.639Z,36.21
2023-06-11T10:24:19.752Z,36.16
2023-06-11T10:25:19.606Z,35.92
2023-06-11T10:26:19.720Z,35.62
2023-06-11T10:27:19.588Z,35.47
2023-06-11T10:28:19.583Z,35.41
2023-06-11T10:29:19.567Z,35.27
2023-06-11T10:30:19.567Z,34.44
2023-06-11T10:31:19.550Z,34.80
2023-06-11T10:32:19.576Z,35.20
2023-06-11T10:33:19.639Z,35.70
2023-06-11T10:34:19.576Z,36.05
2023-06-11T10:35:19.623Z,36.55
2023-06-11T10:36:19.514Z,36.91
2023-06-11T10:37:19.499Z,37.25
2023-06-11T10:38:19.494Z,37.71
2023-06-11T10:39:19.526Z,37.56
2023-06-11T10:40:20.809Z,36.67
2023-06-11T10:41:19.471Z,36.36
2023-06-11T10:42:19.453Z,36.37
2023-06-11T10:43:19.435Z,36.27
2023-06-11T10:44:19.428Z,36.19
2023-06-11T10:45:19.431Z,36.37
2023-06-11T10:46:19.495Z,36.42
2023-06-11T10:47:19.413Z,36.31
2023-06-11T10:48:19.414Z,36.30
2023-06-11T10:49:19.393Z,36.48
2023-06-11T10:50:19.390Z,36.56
2023-06-11T10:51:19.362Z,36.45
2023-06-11T10:52:19.351Z,36.75
2023-06-11T10:53:19.361Z,36.64
2023-06-11T10:54:19.332Z,36.16
2023-06-11T10:55:19.377Z,36.00
2023-06-11T10:56:19.324Z,36.00
2023-06-11T10:57:19.321Z,36.22
2023-06-11T10:58:19.419Z,36.15
2023-06-11T10:59:19.310Z,36.74
2023-06-11T11:00:19.288Z,37.10
2023-06-11T11:01:19.315Z,36.94
2023-06-11T11:02:19.535Z,36.42
2023-06-11T11:03:19.415Z,36.63
2023-06-11T11:04:19.356Z,36.18
2023-06-11T11:05:19.256Z,36.12
2023-06-11T11:06:19.218Z,35.78
2023-06-11T11:07:19.218Z,35.74
2023-06-11T11:08:21.665Z,35.58
2023-06-11T11:09:19.198Z,35.06
2023-06-11T11:10:19.179Z,34.90
2023-06-11T11:11:19.189Z,34.59
2023-06-11T11:12:19.150Z,34.42
2023-06-11T11:13:19.151Z,34.71
2023-06-11T11:14:19.143Z,34.80
2023-06-11T11:15:19.151Z,35.03
2023-06-11T11:16:19.164Z,35.24
2023-06-11T11:17:19.170Z,35.20
2023-06-11T11:18:19.102Z,34.87
2023-06-11T11:19:19.100Z,34.91
2023-06-11T11:20:19.130Z,34.90
2023-06-11T11:21:19.079Z,34.71
2023-06-11T11:22:19.069Z,34.56
2023-06-11T11:23:19.085Z,34.64
2023-06-11T11:24:19.086Z,34.08
2023-06-11T11:25:19.040Z,33.68
2023-06-11T11:26:19.088Z,33.72
2023-06-11T11:27:19.025Z,34.28
2023-06-11T11:28:19.026Z,34.74
2023-06-11T11:29:19.009Z,35.33
2023-06-11T11:30:19.060Z,35.59
2023-06-11T11:31:18.989Z,35.63
2023-06-11T11:32:19.075Z,35.62
2023-06-11T11:33:19.093Z,35.02
2023-06-11T11:34:18.956Z,34.87
2023-06-11T11:35:18.952Z,35.03
2023-06-11T11:36:18.955Z,35.28
2023-06-11T11:37:18.936Z,35.21
2023-06-11T11:38:18.931Z,35.09
2023-06-11T11:39:18.916Z,35.22
2023-06-11T11:40:18.897Z,34.93
2023-06-11T11:41:18.898Z,34.88
2023-06-11T11:42:18.894Z,35.01
2023-06-11T11:43:18.907Z,34.49
2023-06-11T11:44:18.875Z,34.27
2023-06-11T11:45:18.872Z,34.19
2023-06-11T11:46:18.969Z,34.31
2023-06-11T11:47:18.845Z,34.56
2023-06-11T11:48:18.969Z,34.64
2023-06-11T11:49:18.854Z,34.80
2023-06-11T11:50:18.818Z,35.05
2023-06-11T11:51:19.056Z,35.18
2023-06-11T11:52:18.861Z,34.95
2023-06-11T11:53:18.819Z,34.91
2023-06-11T11:54:18.776Z,34.80
2023-06-11T11:55:18.780Z,34.74
2023-06-11T11:56:18.775Z,34.37
2023-06-11T11:57:18.764Z,34.44
2023-06-11T11:58:18.764Z,34.62
2023-06-11T11:59:18.733Z,34.80
2023-06-11T12:00:18.727Z,34.84
2023-06-11T12:01:18.716Z,35.08
2023-06-11T12:02:18.728Z,34.87
2023-06-11T12:03:18.841Z,34.59
2023-06-11T12:04:18.699Z,34.30
2023-06-11T12:05:18.680Z,34.39
2023-06-11T12:06:18.710Z,34.47
2023-06-11T12:07:18.669Z,34.35
2023-06-11T12:08:18.674Z,34.31
2023-06-11T12:09:18.650Z,34.35
2023-06-11T12:10:18.634Z,34.50
2023-06-11T12:11:18.630Z,34.50
2023-06-11T12:12:18.625Z,34.56
2023-06-11T12:13:18.614Z,34.56
2023-06-11T12:14:18.609Z,34.47
2023-06-11T12:15:18.611Z,34.09
2023-06-11T12:16:18.652Z,34.15
2023-06-11T12:17:18.617Z,33.92
2023-06-11T12:18:18.570Z,33.36
2023-06-11T12:19:23.825Z,33.46
2023-06-11T12:20:19.588Z,33.68
2023-06-11T12:21:18.542Z,34.09
2023-06-11T12:22:18.533Z,33.58
2023-06-11T12:23:18.558Z,33.01
2023-06-11T12:24:18.654Z,33.22
2023-06-11T12:25:18.535Z,33.72
2023-06-11T12:26:18.502Z,34.17
2023-06-11T12:27:18.493Z,34.39
2023-06-11T12:28:18.480Z,34.06
2023-06-11T12:29:18.478Z,33.97
2023-06-11T12:30:18.466Z,33.78
2023-06-11T12:31:18.504Z,33.60
2023-06-11T12:32:18.544Z,33.70
2023-06-11T12:33:18.558Z,33.75
2023-06-11T12:34:18.528Z,34.30
2023-06-11T12:35:18.440Z,34.74
2023-06-11T12:36:18.411Z,35.10
2023-06-11T12:37:18.423Z,34.98
2023-06-11T12:38:18.397Z,35.14
2023-06-11T12:39:18.392Z,35.48
2023-06-11T12:40:18.463Z,35.72
2023-06-11T12:41:18.373Z,36.07
2023-06-11T12:42:18.368Z,36.52
2023-06-11T12:43:18.359Z,36.05
2023-06-11T12:44:18.354Z,36.01
2023-06-11T12:45:18.348Z,35.96
2023-06-11T12:46:18.337Z,36.11
2023-06-11T12:47:18.325Z,36.19
2023-06-11T12:48:18.310Z,36.36
2023-06-11T12:49:18.310Z,36.56
2023-06-11T12:50:21.979Z,36.21
2023-06-11T12:51:18.280Z,36.33
2023-06-11T12:52:18.294Z,36.40